createdAt,value
2018-01-17T00:00:30.355Z,985.45
2018-01-17T00:01:30.336Z,985.40
2018-01-17T00:02:30.352Z,985.41
2018-01-17T00:03:30.368Z,985.38
2018-01-17T00:04:30.386Z,985.36
2018-01-17T00:05:30.397Z,985.32
2018-01-17T00:06:30.413Z,985.26
2018-01-17T00:07:30.428Z,985.28
2018-01-17T00:08:30.445Z,985.20
2018-01-17T00:09:30.458Z,985.21
2018-01-17T00:10:30.473Z,985.23
2018-01-17T00:11:30.489Z,985.17
2018-01-17T00:12:30.507Z,985.18
2018-01-17T00:13:30.518Z,985.18
2018-01-17T00:14:30.534Z,985.17
2018-01-17T00:15:30.549Z,985.13
2018-01-17T00:16:30.564Z,985.17
2018-01-17T00:17:30.579Z,985.13
2018-01-17T00:18:30.594Z,985.17
2018-01-17T00:19:30.610Z,985.10
2018-01-17T00:20:30.624Z,985.06
2018-01-17T00:21:30.639Z,985.06
2018-01-17T00:22:30.654Z,985.05
2018-01-17T00:23:30.674Z,985.05
2018-01-17T00:24:30.685Z,985.07
2018-01-17T00:25:30.699Z,985.01
2018-01-17T00:26:30.714Z,984.96
2018-01-17T00:27:30.730Z,984.96
2018-01-17T00:28:30.745Z,984.94
2018-01-17T00:29:30.759Z,984.89
2018-01-17T00:30:30.775Z,984.89
2018-01-17T00:31:30.791Z,984.87
2018-01-17T00:32:30.805Z,984.89
2018-01-17T00:33:30.820Z,984.86
2018-01-17T00:34:30.835Z,984.83
2018-01-17T00:35:30.851Z,984.85
2018-01-17T00:36:30.866Z,984.82
2018-01-17T00:37:30.881Z,984.83
2018-01-17T00:38:30.896Z,984.82
2018-01-17T00:39:30.911Z,984.82
2018-01-17T00:40:30.927Z,984.74
2018-01-17T00:41:30.941Z,984.72
2018-01-17T00:42:30.945Z,984.66
2018-01-17T00:43:30.961Z,984.67
2018-01-17T00:44:30.977Z,984.63
2018-01-17T00:45:30.991Z,984.62
2018-01-17T00:46:31.056Z,984.57
2018-01-17T00:47:31.021Z,984.58
2018-01-17T00:48:31.037Z,984.58
2018-01-17T00:49:31.051Z,984.59
2018-01-17T00:50:31.067Z,984.64
2018-01-17T00:51:31.082Z,984.64
2018-01-17T00:52:31.097Z,984.61
2018-01-17T00:53:31.112Z,984.62
2018-01-17T00:54:31.127Z,984.62
2018-01-17T00:55:31.142Z,984.61
2018-01-17T00:56:31.158Z,984.58
2018-01-17T00:57:31.173Z,984.57
2018-01-17T00:58:31.188Z,984.60
2018-01-17T00:59:31.208Z,984.64
2018-01-17T01:00:31.218Z,984.64
2018-01-17T01:01:31.232Z,984.66
2018-01-17T01:02:31.254Z,984.65
2018-01-17T01:03:31.263Z,984.67
2018-01-17T01:04:31.278Z,984.67
2018-01-17T01:05:31.293Z,984.72
2018-01-17T01:06:31.309Z,984.73
2018-01-17T01:07:31.324Z,984.70
2018-01-17T01:08:31.340Z,984.64
2018-01-17T01:09:31.364Z,984.68
2018-01-17T01:10:31.369Z,984.69
2018-01-17T01:11:31.384Z,984.64
2018-01-17T01:12:31.403Z,984.62
2018-01-17T01:13:31.417Z,984.61
2018-01-17T01:14:31.430Z,984.65
2018-01-17T01:15:31.445Z,984.56
2018-01-17T01:16:31.461Z,984.54
2018-01-17T01:17:31.474Z,984.58
2018-01-17T01:18:31.490Z,984.59
2018-01-17T01:19:31.508Z,984.57
2018-01-17T01:20:31.521Z,984.60
2018-01-17T01:21:31.535Z,984.67
2018-01-17T01:22:31.551Z,984.68
2018-01-17T01:23:31.717Z,984.66
2018-01-17T01:24:31.582Z,984.72
2018-01-17T01:25:31.596Z,984.71
2018-01-17T01:26:31.612Z,984.72
2018-01-17T01:27:31.631Z,984.71
2018-01-17T01:28:31.643Z,984.74
2018-01-17T01:29:31.658Z,984.69
2018-01-17T01:30:31.673Z,984.70
2018-01-17T01:31:31.689Z,984.70
2018-01-17T01:32:31.703Z,984.76
2018-01-17T01:33:31.719Z,984.74
2018-01-17T01:34:31.735Z,984.74
2018-01-17T01:35:31.749Z,984.77
2018-01-17T01:36:31.768Z,984.78
2018-01-17T01:37:31.781Z,984.81
2018-01-17T01:38:31.797Z,984.81
2018-01-17T01:39:31.812Z,984.85
2018-01-17T01:40:31.827Z,984.81
2018-01-17T01:41:31.842Z,984.77
2018-01-17T01:42:31.858Z,984.78
2018-01-17T01:43:31.872Z,984.76
2018-01-17T01:44:31.889Z,984.73
2018-01-17T01:45:31.903Z,984.74
2018-01-17T01:46:31.919Z,984.73
2018-01-17T01:47:31.934Z,984.76
2018-01-17T01:48:31.950Z,984.78
2018-01-17T01:49:31.964Z,984.77
2018-01-17T01:50:31.980Z,984.83
2018-01-17T01:51:31.995Z,984.90
2018-01-17T01:52:32.011Z,984.96
2018-01-17T01:53:32.025Z,985.03
2018-01-17T01:54:32.041Z,985.02
2018-01-17T01:55:32.056Z,985.05
2018-01-17T01:56:32.072Z,985.01
2018-01-17T01:57:32.086Z,985.06
2018-01-17T01:58:32.101Z,985.05
2018-01-17T01:59:32.116Z,985.06
2018-01-17T02:00:32.135Z,985.08
2018-01-17T02:01:32.146Z,985.11
2018-01-17T02:02:32.161Z,985.09
2018-01-17T02:03:32.177Z,985.13
2018-01-17T02:04:32.192Z,985.13
2018-01-17T02:05:32.208Z,985.11
2018-01-17T02:06:32.221Z,985.09
2018-01-17T02:07:32.236Z,985.06
2018-01-17T02:08:32.251Z,985.06
2018-01-17T02:09:32.265Z,985.06
2018-01-17T02:10:32.280Z,985.05
2018-01-17T02:11:32.295Z,985.08
2018-01-17T02:12:32.310Z,985.13
2018-01-17T02:13:32.324Z,985.18
2018-01-17T02:14:32.339Z,985.15
2018-01-17T02:15:32.354Z,985.16
2018-01-17T02:16:32.369Z,985.14
2018-01-17T02:17:32.382Z,985.13
2018-01-17T02:18:32.397Z,985.12
2018-01-17T02:19:32.412Z,985.06
2018-01-17T02:20:32.427Z,985.02
2018-01-17T02:21:32.440Z,985.01
2018-01-17T02:22:32.505Z,985.06
2018-01-17T02:23:32.475Z,985.07
2018-01-17T02:24:32.485Z,985.02
2018-01-17T02:25:32.498Z,985.07
2018-01-17T02:26:32.513Z,985.08
2018-01-17T02:27:32.528Z,985.09
2018-01-17T02:28:32.543Z,985.03
2018-01-17T02:29:32.556Z,985.03
2018-01-17T02:30:32.571Z,985.05
2018-01-17T02:31:32.630Z,984.99
2018-01-17T02:32:32.602Z,985.00
2018-01-17T02:33:32.614Z,984.98
2018-01-17T02:34:32.633Z,984.99
2018-01-17T02:35:32.644Z,984.99
2018-01-17T02:36:32.661Z,985.06
2018-01-17T02:37:32.673Z,985.03
2018-01-17T02:38:32.686Z,985.02
2018-01-17T02:39:32.702Z,985.03
2018-01-17T02:40:32.865Z,985.10
2018-01-17T02:41:32.730Z,985.14
2018-01-17T02:42:32.745Z,985.11
2018-01-17T02:43:32.759Z,985.10
2018-01-17T02:44:32.775Z,985.09
2018-01-17T02:45:32.790Z,985.08
2018-01-17T02:46:32.803Z,985.02
2018-01-17T02:47:32.819Z,985.01
2018-01-17T02:48:32.833Z,985.05
2018-01-17T02:49:32.847Z,985.09
2018-01-17T02:50:32.862Z,985.07
2018-01-17T02:51:32.877Z,985.10
2018-01-17T02:52:32.892Z,985.09
2018-01-17T02:53:32.905Z,985.05
2018-01-17T02:54:32.920Z,985.09
2018-01-17T02:55:32.935Z,985.08
2018-01-17T02:56:32.949Z,985.08
2018-01-17T02:57:32.962Z,985.04
2018-01-17T02:58:32.978Z,985.06
2018-01-17T02:59:32.993Z,985.07
2018-01-17T03:00:33.007Z,985.14
2018-01-17T03:01:33.023Z,985.19
2018-01-17T03:02:33.036Z,985.19
2018-01-17T03:03:33.051Z,985.18
2018-01-17T03:04:33.070Z,985.16
2018-01-17T03:05:33.080Z,985.20
2018-01-17T03:06:33.096Z,985.25
2018-01-17T03:07:33.109Z,985.26
2018-01-17T03:08:33.124Z,985.26
2018-01-17T03:09:33.138Z,985.28
2018-01-17T03:10:33.153Z,985.27
2018-01-17T03:11:33.168Z,985.25
2018-01-17T03:12:33.183Z,985.24
2018-01-17T03:13:33.196Z,985.20
2018-01-17T03:14:33.211Z,985.18
2018-01-17T03:15:33.226Z,985.24
2018-01-17T03:16:33.241Z,985.28
2018-01-17T03:17:33.256Z,985.32
2018-01-17T03:18:33.269Z,985.34
2018-01-17T03:19:33.435Z,985.35
2018-01-17T03:20:33.298Z,985.29
2018-01-17T03:21:33.313Z,985.34
2018-01-17T03:22:33.328Z,985.39
2018-01-17T03:23:33.342Z,985.43
2018-01-17T03:24:33.357Z,985.34
2018-01-17T03:25:33.371Z,985.39
2018-01-17T03:26:33.386Z,985.37
2018-01-17T03:27:33.401Z,985.38
2018-01-17T03:28:33.416Z,985.38
2018-01-17T03:29:33.430Z,985.35
2018-01-17T03:30:33.445Z,985.30
2018-01-17T03:31:33.509Z,985.34
2018-01-17T03:32:33.475Z,985.33
2018-01-17T03:33:33.488Z,985.36
2018-01-17T03:34:33.503Z,985.38
2018-01-17T03:35:33.521Z,985.43
2018-01-17T03:36:33.531Z,985.41
2018-01-17T03:37:33.546Z,985.41
2018-01-17T03:38:33.561Z,985.40
2018-01-17T03:39:33.576Z,985.45
2018-01-17T03:40:33.591Z,985.55
2018-01-17T03:41:33.604Z,985.57
2018-01-17T03:42:33.620Z,985.58
2018-01-17T03:43:33.635Z,985.58
2018-01-17T03:44:33.649Z,985.57
2018-01-17T03:45:33.663Z,985.51
2018-01-17T03:46:33.680Z,985.55
2018-01-17T03:47:33.695Z,985.52
2018-01-17T03:48:33.708Z,985.54
2018-01-17T03:49:33.724Z,985.60
2018-01-17T03:50:33.740Z,985.60
2018-01-17T03:51:33.751Z,985.57
2018-01-17T03:52:33.767Z,985.61
2018-01-17T03:53:33.780Z,985.60
2018-01-17T03:54:33.795Z,985.57
2018-01-17T03:55:33.960Z,985.59
2018-01-17T03:56:33.824Z,985.62
2018-01-17T03:57:33.838Z,985.65
2018-01-17T03:58:33.853Z,985.63
2018-01-17T03:59:33.868Z,985.66
2018-01-17T04:00:33.884Z,985.61
2018-01-17T04:01:33.897Z,985.60
2018-01-17T04:02:33.912Z,985.62
2018-01-17T04:03:33.925Z,985.65
2018-01-17T04:04:33.943Z,985.62
2018-01-17T04:05:33.955Z,985.61
2018-01-17T04:06:33.970Z,985.55
2018-01-17T04:07:33.986Z,985.54
2018-01-17T04:08:34.000Z,985.54
2018-01-17T04:09:34.014Z,985.51
2018-01-17T04:10:34.029Z,985.55
2018-01-17T04:11:34.045Z,985.58
2018-01-17T04:12:34.059Z,985.57
2018-01-17T04:13:34.073Z,985.62
2018-01-17T04:14:34.087Z,985.67
2018-01-17T04:15:34.102Z,985.67
2018-01-17T04:16:34.117Z,985.74
2018-01-17T04:17:34.131Z,985.71
2018-01-17T04:18:34.146Z,985.68
2018-01-17T04:19:34.161Z,985.73
2018-01-17T04:20:34.325Z,985.67
2018-01-17T04:21:34.189Z,985.74
2018-01-17T04:22:34.204Z,985.73
2018-01-17T04:23:34.219Z,985.77
2018-01-17T04:24:34.234Z,985.80
2018-01-17T04:25:34.248Z,985.83
2018-01-17T04:26:34.262Z,985.76
2018-01-17T04:27:34.278Z,985.79
2018-01-17T04:28:34.293Z,985.81
2018-01-17T04:29:34.310Z,985.88
2018-01-17T04:30:34.321Z,985.89
2018-01-17T04:31:34.336Z,985.94
2018-01-17T04:32:34.352Z,985.98
2018-01-17T04:33:34.365Z,985.97
2018-01-17T04:34:34.380Z,985.96
2018-01-17T04:35:34.394Z,985.99
2018-01-17T04:36:34.410Z,986.02
2018-01-17T04:37:34.430Z,985.99
2018-01-17T04:38:34.438Z,985.94
2018-01-17T04:39:34.453Z,985.97
2018-01-17T04:40:34.468Z,986.02
2018-01-17T04:41:34.482Z,985.98
2018-01-17T04:42:34.496Z,985.94
2018-01-17T04:43:34.512Z,985.97
2018-01-17T04:44:34.526Z,986.04
2018-01-17T04:45:34.543Z,986.05
2018-01-17T04:46:34.556Z,986.02
2018-01-17T04:47:34.570Z,986.03
2018-01-17T04:48:34.584Z,986.00
2018-01-17T04:49:34.598Z,986.04
2018-01-17T04:50:34.866Z,986.12
2018-01-17T04:51:34.627Z,986.19
2018-01-17T04:52:34.642Z,986.22
2018-01-17T04:53:34.656Z,986.22
2018-01-17T04:54:34.671Z,986.17
2018-01-17T04:55:34.686Z,986.20
2018-01-17T04:56:34.700Z,986.19
2018-01-17T04:57:34.867Z,986.23
2018-01-17T04:58:34.729Z,986.22
2018-01-17T04:59:34.744Z,986.24
2018-01-17T05:00:34.759Z,986.32
2018-01-17T05:01:34.772Z,986.32
2018-01-17T05:02:34.787Z,986.34
2018-01-17T05:03:34.802Z,986.35
2018-01-17T05:04:34.816Z,986.42
2018-01-17T05:05:34.831Z,986.42
2018-01-17T05:06:34.846Z,986.41
2018-01-17T05:07:34.859Z,986.40
2018-01-17T05:08:34.875Z,986.41
2018-01-17T05:09:34.890Z,986.44
2018-01-17T05:10:34.903Z,986.44
2018-01-17T05:11:34.918Z,986.48
2018-01-17T05:12:34.933Z,986.53
2018-01-17T05:13:34.947Z,986.55
2018-01-17T05:14:34.960Z,986.58
2018-01-17T05:15:34.976Z,986.58
2018-01-17T05:16:34.991Z,986.60
2018-01-17T05:17:35.005Z,986.59
2018-01-17T05:18:35.019Z,986.58
2018-01-17T05:19:35.034Z,986.61
2018-01-17T05:20:35.049Z,986.65
2018-01-17T05:21:35.062Z,986.60
2018-01-17T05:22:35.078Z,986.65
2018-01-17T05:23:35.092Z,986.67
2018-01-17T05:24:35.107Z,986.68
2018-01-17T05:25:35.273Z,986.75
2018-01-17T05:26:35.135Z,986.75
2018-01-17T05:27:35.155Z,986.78
2018-01-17T05:28:35.165Z,986.76
2018-01-17T05:29:35.178Z,986.71
2018-01-17T05:30:35.193Z,986.74
2018-01-17T05:31:35.208Z,986.77
2018-01-17T05:32:35.222Z,986.80
2018-01-17T05:33:35.236Z,986.80
2018-01-17T05:34:35.297Z,986.80
2018-01-17T05:35:35.266Z,986.77
2018-01-17T05:36:35.281Z,986.79
2018-01-17T05:37:35.295Z,986.81
2018-01-17T05:38:35.309Z,986.85
2018-01-17T05:39:35.324Z,986.79
2018-01-17T05:40:35.745Z,986.75
2018-01-17T05:41:35.353Z,986.81
2018-01-17T05:42:35.367Z,986.80
2018-01-17T05:43:35.382Z,986.83
2018-01-17T05:44:35.397Z,986.84
2018-01-17T05:45:35.411Z,986.87
2018-01-17T05:46:35.426Z,986.83
2018-01-17T05:47:35.441Z,986.86
2018-01-17T05:48:35.706Z,986.90
2018-01-17T05:49:35.468Z,986.89
2018-01-17T05:50:35.484Z,986.93
2018-01-17T05:51:35.499Z,986.97
2018-01-17T05:52:35.514Z,986.93
2018-01-17T05:53:35.527Z,986.91
2018-01-17T05:54:35.542Z,986.89
2018-01-17T05:55:35.557Z,986.92
2018-01-17T05:56:35.573Z,986.91
2018-01-17T05:57:35.586Z,986.95
2018-01-17T05:58:35.600Z,986.99
2018-01-17T05:59:35.615Z,987.03
2018-01-17T06:00:35.635Z,987.08
2018-01-17T06:01:35.644Z,987.07
2018-01-17T06:02:35.658Z,987.12
2018-01-17T06:03:35.674Z,987.15
2018-01-17T06:04:35.688Z,987.14
2018-01-17T06:05:35.702Z,987.13
2018-01-17T06:06:35.718Z,987.14
2018-01-17T06:07:35.734Z,987.18
2018-01-17T06:08:35.747Z,987.23
2018-01-17T06:09:35.761Z,987.26
2018-01-17T06:10:35.776Z,987.24
2018-01-17T06:11:35.791Z,987.30
2018-01-17T06:12:35.805Z,987.25
2018-01-17T06:13:35.821Z,987.31
2018-01-17T06:14:35.833Z,987.37
2018-01-17T06:15:35.849Z,987.36
2018-01-17T06:16:35.864Z,987.28
2018-01-17T06:17:35.877Z,987.36
2018-01-17T06:18:35.891Z,987.39
2018-01-17T06:19:36.057Z,987.35
2018-01-17T06:20:35.921Z,987.43
2018-01-17T06:21:35.936Z,987.45
2018-01-17T06:22:35.949Z,987.47
2018-01-17T06:23:35.966Z,987.42
2018-01-17T06:24:35.982Z,987.46
2018-01-17T06:25:35.994Z,987.55
2018-01-17T06:26:36.009Z,987.50
2018-01-17T06:27:36.029Z,987.51
2018-01-17T06:28:36.037Z,987.52
2018-01-17T06:29:36.052Z,987.60
2018-01-17T06:30:36.067Z,987.57
2018-01-17T06:31:36.081Z,987.66
2018-01-17T06:32:36.097Z,987.63
2018-01-17T06:33:36.111Z,987.66
2018-01-17T06:34:36.126Z,987.73
2018-01-17T06:35:36.141Z,987.73
2018-01-17T06:36:36.155Z,987.78
2018-01-17T06:37:36.168Z,987.77
2018-01-17T06:38:36.184Z,987.73
2018-01-17T06:39:36.199Z,987.78
2018-01-17T06:40:36.213Z,987.81
2018-01-17T06:41:36.227Z,987.82
2018-01-17T06:42:36.242Z,987.87
2018-01-17T06:43:36.257Z,987.93
2018-01-17T06:44:36.272Z,987.92
2018-01-17T06:45:36.286Z,987.91
2018-01-17T06:46:36.301Z,987.96
2018-01-17T06:47:37.117Z,987.99
2018-01-17T06:48:36.330Z,987.98
2018-01-17T06:49:36.344Z,987.96
2018-01-17T06:50:36.360Z,988.00
2018-01-17T06:51:36.374Z,988.01
2018-01-17T06:52:36.389Z,988.03
2018-01-17T06:53:36.403Z,988.05
2018-01-17T06:54:36.419Z,988.06
2018-01-17T06:55:36.433Z,988.08
2018-01-17T06:56:36.448Z,988.11
2018-01-17T06:57:36.462Z,988.14
2018-01-17T06:58:36.477Z,988.19
2018-01-17T06:59:36.492Z,988.28
2018-01-17T07:00:36.507Z,988.30
2018-01-17T07:01:36.521Z,988.31
2018-01-17T07:02:36.536Z,988.30
2018-01-17T07:03:36.551Z,988.31
2018-01-17T07:04:36.566Z,988.30
2018-01-17T07:05:36.581Z,988.34
2018-01-17T07:06:36.595Z,988.38
2018-01-17T07:07:36.610Z,988.38
2018-01-17T07:08:36.624Z,988.38
2018-01-17T07:09:36.639Z,988.42
2018-01-17T07:10:36.654Z,988.42
2018-01-17T07:11:36.669Z,988.46
2018-01-17T07:12:36.688Z,988.54
2018-01-17T07:13:36.698Z,988.52
2018-01-17T07:14:36.717Z,988.58
2018-01-17T07:15:36.728Z,988.58
2018-01-17T07:16:36.743Z,988.63
2018-01-17T07:17:36.757Z,988.66
2018-01-17T07:18:36.772Z,988.65
2018-01-17T07:19:36.787Z,988.72
2018-01-17T07:20:36.802Z,988.70
2018-01-17T07:21:36.817Z,988.75
2018-01-17T07:22:36.832Z,988.76
2018-01-17T07:23:36.846Z,988.81
2018-01-17T07:24:36.861Z,988.85
2018-01-17T07:25:36.875Z,988.93
2018-01-17T07:26:36.890Z,988.89
2018-01-17T07:27:36.905Z,988.97
2018-01-17T07:28:36.920Z,988.98
2018-01-17T07:29:36.935Z,988.98
2018-01-17T07:30:36.949Z,989.05
2018-01-17T07:31:36.972Z,989.01
2018-01-17T07:32:36.979Z,989.05
2018-01-17T07:33:36.993Z,989.10
2018-01-17T07:34:37.008Z,989.15
2018-01-17T07:35:37.023Z,989.18
2018-01-17T07:36:37.043Z,989.15
2018-01-17T07:37:37.053Z,989.19
2018-01-17T07:38:37.067Z,989.22
2018-01-17T07:39:37.081Z,989.25
2018-01-17T07:40:37.097Z,989.19
2018-01-17T07:41:37.111Z,989.17
2018-01-17T07:42:37.126Z,989.18
2018-01-17T07:43:37.140Z,989.20
2018-01-17T07:44:37.156Z,989.24
2018-01-17T07:45:37.320Z,989.32
2018-01-17T07:46:37.187Z,989.40
2018-01-17T07:47:37.201Z,989.31
2018-01-17T07:48:37.215Z,989.38
2018-01-17T07:49:37.229Z,989.46
2018-01-17T07:50:37.244Z,989.47
2018-01-17T07:51:37.258Z,989.47
2018-01-17T07:52:37.273Z,989.48
2018-01-17T07:53:37.287Z,989.46
2018-01-17T07:54:37.304Z,989.56
2018-01-17T07:55:37.318Z,989.56
2018-01-17T07:56:37.333Z,989.61
2018-01-17T07:57:37.347Z,989.68
2018-01-17T07:58:37.362Z,989.75
2018-01-17T07:59:37.377Z,989.76
2018-01-17T08:00:37.392Z,989.70
2018-01-17T08:01:37.406Z,989.76
2018-01-17T08:02:37.421Z,989.73
2018-01-17T08:03:37.436Z,989.74
2018-01-17T08:04:37.454Z,989.73
2018-01-17T08:05:37.617Z,989.78
2018-01-17T08:06:37.484Z,989.84
2018-01-17T08:07:37.495Z,989.92
2018-01-17T08:08:37.511Z,989.92
2018-01-17T08:09:37.528Z,989.99
2018-01-17T08:10:37.539Z,989.98
2018-01-17T08:11:37.576Z,989.98
2018-01-17T08:12:37.573Z,990.02
2018-01-17T08:13:37.583Z,990.04
2018-01-17T08:14:37.599Z,990.02
2018-01-17T08:15:37.613Z,990.01
2018-01-17T08:16:37.628Z,990.07
2018-01-17T08:17:37.643Z,990.10
2018-01-17T08:18:37.661Z,990.11
2018-01-17T08:19:37.673Z,990.13
2018-01-17T08:20:37.688Z,990.12
2018-01-17T08:21:37.701Z,990.13
2018-01-17T08:22:37.718Z,990.12
2018-01-17T08:23:37.731Z,990.18
2018-01-17T08:24:37.747Z,990.24
2018-01-17T08:25:37.759Z,990.25
2018-01-17T08:26:37.775Z,990.30
2018-01-17T08:27:37.790Z,990.31
2018-01-17T08:28:37.805Z,990.31
2018-01-17T08:29:37.819Z,990.29
2018-01-17T08:30:37.834Z,990.32
2018-01-17T08:31:37.848Z,990.34
2018-01-17T08:32:37.863Z,990.37
2018-01-17T08:33:37.879Z,990.39
2018-01-17T08:34:37.896Z,990.43
2018-01-17T08:35:37.907Z,990.48
2018-01-17T08:36:37.922Z,990.54
2018-01-17T08:37:37.936Z,990.60
2018-01-17T08:38:37.951Z,990.64
2018-01-17T08:39:37.965Z,990.71
2018-01-17T08:40:37.980Z,990.73
2018-01-17T08:41:38.003Z,990.69
2018-01-17T08:42:38.028Z,990.72
2018-01-17T08:43:38.027Z,990.71
2018-01-17T08:44:38.039Z,990.72
2018-01-17T08:45:38.052Z,990.69
2018-01-17T08:46:38.068Z,990.73
2018-01-17T08:47:38.082Z,990.72
2018-01-17T08:48:38.097Z,990.76
2018-01-17T08:49:38.110Z,990.75
2018-01-17T08:50:38.125Z,990.73
2018-01-17T08:51:38.140Z,990.75
2018-01-17T08:52:38.155Z,990.77
2018-01-17T08:53:38.168Z,990.74
2018-01-17T08:54:38.182Z,990.79
2018-01-17T08:55:38.197Z,990.76
2018-01-17T08:56:38.212Z,990.72
2018-01-17T08:57:38.826Z,990.78
2018-01-17T08:58:38.240Z,990.76
2018-01-17T08:59:38.255Z,990.80
2018-01-17T09:00:38.270Z,990.83
2018-01-17T09:01:38.284Z,990.85
2018-01-17T09:02:38.302Z,990.91
2018-01-17T09:03:38.319Z,990.93
2018-01-17T09:04:38.334Z,990.96
2018-01-17T09:05:38.344Z,991.01
2018-01-17T09:06:38.357Z,991.07
2018-01-17T09:07:38.371Z,991.06
2018-01-17T09:08:38.386Z,991.04
2018-01-17T09:09:38.400Z,991.08
2018-01-17T09:10:38.472Z,991.00
2018-01-17T09:11:38.475Z,991.04
2018-01-17T09:12:38.643Z,991.08
2018-01-17T09:13:38.544Z,991.15
2018-01-17T09:14:38.527Z,991.14
2018-01-17T09:15:38.502Z,991.20
2018-01-17T09:16:39.010Z,991.17
2018-01-17T09:17:38.974Z,991.21
2018-01-17T09:18:38.621Z,991.23
2018-01-17T09:19:38.620Z,991.22
2018-01-17T09:20:38.642Z,991.20
2018-01-17T09:21:38.689Z,991.23
2018-01-17T09:22:38.870Z,991.18
2018-01-17T09:23:38.728Z,991.20
2018-01-17T09:24:38.662Z,991.17
2018-01-17T09:25:38.735Z,991.20
2018-01-17T09:26:38.735Z,991.17
2018-01-17T09:27:38.880Z,991.23
2018-01-17T09:28:38.777Z,991.25
2018-01-17T09:29:38.692Z,991.31
2018-01-17T09:30:38.708Z,991.35
2018-01-17T09:31:38.722Z,991.32
2018-01-17T09:32:38.749Z,991.36
2018-01-17T09:33:38.751Z,991.36
2018-01-17T09:34:38.766Z,991.37
2018-01-17T09:35:38.931Z,991.42
2018-01-17T09:36:38.795Z,991.44
2018-01-17T09:37:38.809Z,991.47
2018-01-17T09:38:38.823Z,991.52
2018-01-17T09:39:38.840Z,991.49
2018-01-17T09:40:38.854Z,991.49
2018-01-17T09:41:38.918Z,991.58
2018-01-17T09:42:38.882Z,991.62
2018-01-17T09:43:38.897Z,991.68
2018-01-17T09:44:38.913Z,991.67
2018-01-17T09:45:38.925Z,991.68
2018-01-17T09:46:38.940Z,991.72
2018-01-17T09:47:38.955Z,991.68
2018-01-17T09:48:38.973Z,991.67
2018-01-17T09:49:38.984Z,991.67
2018-01-17T09:50:38.999Z,991.68
2018-01-17T09:51:39.015Z,991.71
2018-01-17T09:52:39.028Z,991.75
2018-01-17T09:53:39.043Z,991.76
2018-01-17T09:54:39.057Z,991.81
2018-01-17T09:55:39.080Z,991.84
2018-01-17T09:56:39.088Z,991.86
2018-01-17T09:57:39.101Z,991.88
2018-01-17T09:58:39.169Z,991.84
2018-01-17T09:59:39.131Z,991.88
2018-01-17T10:00:39.146Z,991.86
2018-01-17T10:01:39.160Z,991.97
2018-01-17T10:02:39.175Z,991.99
2018-01-17T10:03:39.190Z,992.02
2018-01-17T10:04:39.205Z,992.06
2018-01-17T10:05:39.222Z,992.07
2018-01-17T10:06:39.235Z,992.05
2018-01-17T10:07:39.267Z,992.04
2018-01-17T10:08:39.267Z,992.08
2018-01-17T10:09:39.334Z,992.14
2018-01-17T10:10:39.301Z,992.12
2018-01-17T10:11:39.533Z,992.13
2018-01-17T10:12:39.405Z,992.11
2018-01-17T10:13:39.339Z,992.09
2018-01-17T10:14:39.357Z,992.16
2018-01-17T10:15:39.448Z,992.12
2018-01-17T10:16:39.401Z,992.08
2018-01-17T10:17:39.427Z,992.16
2018-01-17T10:18:39.416Z,992.25
2018-01-17T10:19:39.454Z,992.19
2018-01-17T10:20:39.459Z,992.15
2018-01-17T10:21:39.513Z,992.21
2018-01-17T10:22:39.482Z,992.18
2018-01-17T10:23:39.497Z,992.15
2018-01-17T10:24:39.507Z,992.25
2018-01-17T10:25:39.530Z,992.27
2018-01-17T10:26:39.547Z,992.29
2018-01-17T10:27:39.612Z,992.32
2018-01-17T10:28:39.585Z,992.34
2018-01-17T10:29:39.587Z,992.35
2018-01-17T10:30:39.605Z,992.36
2018-01-17T10:31:39.614Z,992.43
2018-01-17T10:32:39.656Z,992.35
2018-01-17T10:33:39.673Z,992.41
2018-01-17T10:34:39.681Z,992.45
2018-01-17T10:35:39.700Z,992.44
2018-01-17T10:36:39.709Z,992.44
2018-01-17T10:37:40.105Z,992.40
2018-01-17T10:38:39.719Z,992.44
2018-01-17T10:39:39.748Z,992.34
2018-01-17T10:40:39.761Z,992.46
2018-01-17T10:41:39.770Z,992.44
2018-01-17T10:42:39.789Z,992.37
2018-01-17T10:43:39.800Z,992.42
2018-01-17T10:44:39.817Z,992.40
2018-01-17T10:45:39.831Z,992.53
2018-01-17T10:46:39.844Z,992.45
2018-01-17T10:47:39.877Z,992.39
2018-01-17T10:48:39.873Z,992.41
2018-01-17T10:49:39.896Z,992.45
2018-01-17T10:50:39.909Z,992.46
2018-01-17T10:51:39.922Z,992.49
2018-01-17T10:52:39.945Z,992.46
2018-01-17T10:53:39.948Z,992.48
2018-01-17T10:54:39.972Z,992.44
2018-01-17T10:55:39.979Z,992.52
2018-01-17T10:56:39.996Z,992.51
2018-01-17T10:57:40.015Z,992.50
2018-01-17T10:58:40.026Z,992.44
2018-01-17T10:59:40.042Z,992.41
2018-01-17T11:00:40.070Z,992.45
2018-01-17T11:01:40.073Z,992.50
2018-01-17T11:02:40.088Z,992.52
2018-01-17T11:03:40.105Z,992.48
2018-01-17T11:04:40.121Z,992.48
2018-01-17T11:05:40.135Z,992.53
2018-01-17T11:06:40.151Z,992.53
2018-01-17T11:07:40.175Z,992.58
2018-01-17T11:08:40.185Z,992.53
2018-01-17T11:09:40.198Z,992.61
2018-01-17T11:10:40.214Z,992.58
2018-01-17T11:11:40.284Z,992.60
2018-01-17T11:12:40.246Z,992.69
2018-01-17T11:13:40.263Z,992.61
2018-01-17T11:14:40.276Z,992.55
2018-01-17T11:15:40.293Z,992.59
2018-01-17T11:16:40.309Z,992.55
2018-01-17T11:17:40.324Z,992.60
2018-01-17T11:18:40.340Z,992.56
2018-01-17T11:19:40.356Z,992.56
2018-01-17T11:20:40.372Z,992.53
2018-01-17T11:21:40.387Z,992.66
2018-01-17T11:22:40.403Z,992.59
2018-01-17T11:23:40.419Z,992.50
2018-01-17T11:24:40.466Z,992.51
2018-01-17T11:25:40.450Z,992.60
2018-01-17T11:26:40.492Z,992.54
2018-01-17T11:27:40.482Z,992.62
2018-01-17T11:28:40.498Z,992.66
2018-01-17T11:29:40.513Z,992.68
2018-01-17T11:30:40.529Z,992.66
2018-01-17T11:31:40.645Z,992.68
2018-01-17T11:32:40.560Z,992.68
2018-01-17T11:33:40.576Z,992.70
2018-01-17T11:34:40.590Z,992.72
2018-01-17T11:35:40.607Z,992.66
2018-01-17T11:36:40.623Z,992.72
2018-01-17T11:37:40.638Z,992.69
2018-01-17T11:38:40.653Z,992.69
2018-01-17T11:39:40.669Z,992.67
2018-01-17T11:40:40.686Z,992.71
2018-01-17T11:41:40.702Z,992.69
2018-01-17T11:42:40.716Z,992.66
2018-01-17T11:43:40.732Z,992.67
2018-01-17T11:44:40.747Z,992.69
2018-01-17T11:45:40.762Z,992.71
2018-01-17T11:46:40.778Z,992.61
2018-01-17T11:47:40.795Z,992.62
2018-01-17T11:48:40.810Z,992.64
2018-01-17T11:49:40.825Z,992.61
2018-01-17T11:50:40.841Z,992.56
2018-01-17T11:51:40.859Z,992.59
2018-01-17T11:52:40.872Z,992.56
2018-01-17T11:53:40.889Z,992.57
2018-01-17T11:54:40.903Z,992.58
2018-01-17T11:55:40.920Z,992.50
2018-01-17T11:56:40.935Z,992.54
2018-01-17T11:57:40.950Z,992.49
2018-01-17T11:58:40.966Z,992.46
2018-01-17T11:59:40.982Z,992.50
2018-01-17T12:00:40.998Z,992.52
2018-01-17T12:01:41.013Z,992.53
2018-01-17T12:02:41.029Z,992.55
2018-01-17T12:03:41.045Z,992.48
2018-01-17T12:04:41.061Z,992.49
2018-01-17T12:05:41.076Z,992.49
2018-01-17T12:06:41.094Z,992.52
2018-01-17T12:07:41.107Z,992.52
2018-01-17T12:08:41.124Z,992.51
2018-01-17T12:09:41.140Z,992.55
2018-01-17T12:10:41.154Z,992.52
2018-01-17T12:11:41.172Z,992.48
2018-01-17T12:12:41.188Z,992.49
2018-01-17T12:13:41.202Z,992.53
2018-01-17T12:14:41.618Z,992.47
2018-01-17T12:15:41.236Z,992.50
2018-01-17T12:16:41.250Z,992.50
2018-01-17T12:17:41.264Z,992.52
2018-01-17T12:18:41.281Z,992.52
2018-01-17T12:19:41.302Z,992.51
2018-01-17T12:20:41.312Z,992.54
2018-01-17T12:21:41.326Z,992.50
2018-01-17T12:22:41.342Z,992.51
2018-01-17T12:23:41.358Z,992.58
2018-01-17T12:24:41.374Z,992.61
2018-01-17T12:25:41.389Z,992.67
2018-01-17T12:26:41.405Z,992.67
2018-01-17T12:27:41.420Z,992.65
2018-01-17T12:28:41.436Z,992.63